Time;durP1;ratioP1;P1;durP2;ratioP2;P2;SDS_P1;SDS_P2;PMS_P1;PMS_P2;Temp;Humidity;BMP_temperature;BMP_pressure;BME280_temperature;BME280_humidity;BME280_pressure;Samples;Min_cycle;Max_cycle;Signal;HPM_P1;HPM_P2
2023/06/05 00:00:11;;;;;;;5.45;3.40;;;;;;;15.78;46.82;100521.31;5013445;28;20053;-77
2023/06/05 00:02:37;;;;;;;6.45;3.90;;;;;;;15.74;47.01;100517.97;5011750;28;20049;-77
2023/06/05 00:05:08;;;;;;;6.32;3.63;;;;;;;15.73;46.99;100518.94;5013321;28;20058;-77
2023/06/05 00:07:37;;;;;;;5.18;3.45;;;;;;;15.70;46.97;100521.78;5013664;28;20053;-77
2023/06/05 00:10:08;;;;;;;4.60;3.75;;;;;;;15.65;48.34;100523.91;5013100;28;20050;-77
2023/06/05 00:12:35;;;;;;;5.45;3.40;;;;;;;15.63;47.38;100520.50;5011707;28;20084;-77
2023/06/05 00:15:02;;;;;;;6.25;3.65;;;;;;;15.61;47.72;100517.09;5012859;28;20481;-77
2023/06/05 00:17:30;;;;;;;5.55;3.35;;;;;;;15.58;47.67;100517.28;5013062;28;20050;-76
2023/06/05 00:19:59;;;;;;;5.97;3.85;;;;;;;15.56;47.72;100514.75;5013314;28;20474;-76
2023/06/05 00:22:33;;;;;;;6.63;4.00;;;;;;;15.53;47.85;100517.63;5013101;28;20053;-77
2023/06/05 00:25:00;;;;;;;6.03;3.67;;;;;;;15.52;47.64;100517.72;5011870;28;20057;-77
2023/06/05 00:27:28;;;;;;;5.68;3.80;;;;;;;15.49;47.98;100519.63;5012339;28;20050;-77
2023/06/05 00:29:54;;;;;;;4.95;3.92;;;;;;;15.47;47.88;100518.84;5012961;28;20108;-76
2023/06/05 00:32:21;;;;;;;4.18;3.42;;;;;;;15.44;47.79;100515.56;5012920;28;20050;-77
2023/06/05 00:34:49;;;;;;;7.47;3.80;;;;;;;15.39;47.70;100507.91;5012699;28;20078;-76
2023/06/05 00:37:16;;;;;;;5.93;3.75;;;;;;;15.35;47.94;100511.69;5012381;28;20049;-77
2023/06/05 00:39:43;;;;;;;8.07;4.85;;;;;;;15.30;47.96;100511.16;5012522;28;20491;-76
2023/06/05 00:42:10;;;;;;;5.10;4.00;;;;;;;15.24;48.24;100505.31;5012483;28;20065;-76
2023/06/05 00:44:36;;;;;;;5.00;3.90;;;;;;;15.19;48.20;100507.41;5011029;28;20529;-76
2023/06/05 00:47:04;;;;;;;5.20;4.10;;;;;;;15.13;48.46;100504.31;5012387;28;20388;-76
2023/06/05 00:49:31;;;;;;;5.13;4.25;;;;;;;15.08;48.48;100504.59;5012313;28;20042;-77
2023/06/05 00:51:58;;;;;;;4.90;4.05;;;;;;;15.04;48.73;100505.72;5011000;28;20413;-77
2023/06/05 00:54:25;;;;;;;5.95;4.30;;;;;;;15.01;48.96;100504.13;5011936;28;20076;-77
2023/06/05 00:56:52;;;;;;;6.10;4.22;;;;;;;14.98;49.19;100499.88;5011928;28;20262;-77
2023/06/05 00:59:20;;;;;;;7.80;4.63;;;;;;;14.94;49.08;100498.38;5012587;28;20060;-76
2023/06/05 01:01:47;;;;;;;10.10;4.65;;;;;;;14.93;49.04;100501.09;5012405;28;20062;-77
2023/06/05 01:04:14;;;;;;;5.85;4.78;;;;;;;14.92;49.19;100502.91;5012431;28;20112;-77
2023/06/05 01:06:41;;;;;;;6.30;4.10;;;;;;;14.90;49.20;100506.59;5011761;28;20050;-77
2023/06/05 01:09:10;;;;;;;5.05;4.35;;;;;;;14.88;49.07;100505.84;5011893;28;20494;-77
2023/06/05 01:11:36;;;;;;;8.25;4.47;;;;;;;14.84;49.24;100499.91;5011917;28;20084;-76
2023/06/05 01:14:27;;;;;;;7.15;4.75;;;;;;;14.75;50.40;100503.06;5012176;28;20092;-77
2023/06/05 01:16:56;;;;;;;6.63;4.60;;;;;;;14.78;49.54;100501.13;4992256;28;20312;-77
2023/06/05 01:19:24;;;;;;;8.32;5.05;;;;;;;14.73;49.60;100493.44;4992036;28;20496;-78
2023/06/05 01:21:52;;;;;;;6.32;4.60;;;;;;;14.70;49.30;100493.63;5003502;28;20084;-77
2023/06/05 01:24:22;;;;;;;8.05;5.05;;;;;;;14.67;49.62;100492.97;5011838;28;20049;-77
2023/06/05 01:26:52;;;;;;;11.88;5.30;;;;;;;14.62;49.60;100487.97;5012001;28;20260;-77
2023/06/05 01:29:26;;;;;;;8.45;5.03;;;;;;;14.56;50.88;100493.63;5011526;28;20404;-76
2023/06/05 01:31:59;;;;;;;6.55;4.53;;;;;;;14.53;50.39;100492.03;5011489;28;20221;-76
2023/06/05 01:34:27;;;;;;;6.85;4.88;;;;;;;14.49;49.89;100479.91;5011855;28;20053;-76
2023/06/05 01:36:56;;;;;;;7.28;4.82;;;;;;;14.45;50.40;100491.66;5009976;28;20525;-76
2023/06/05 01:39:24;;;;;;;11.65;5.43;;;;;;;14.44;50.21;100482.00;5010475;28;20054;-76
2023/06/05 01:41:53;;;;;;;6.38;4.93;;;;;;;14.40;50.32;100478.72;5011131;28;20050;-76
2023/06/05 01:44:20;;;;;;;8.90;4.80;;;;;;;14.38;50.11;100474.41;5011417;28;20054;-77
2023/06/05 01:46:47;;;;;;;7.35;4.68;;;;;;;14.37;50.22;100472.72;5010760;28;20097;-77
2023/06/05 01:49:14;;;;;;;6.75;4.38;;;;;;;14.35;50.33;100474.63;5010914;28;20475;-77
2023/06/05 01:51:41;;;;;;;7.15;5.10;;;;;;;14.31;50.42;100474.81;5011697;28;20502;-77
2023/06/05 01:54:07;;;;;;;8.00;4.68;;;;;;;14.29;50.40;100470.56;5010169;28;20077;-77
2023/06/05 01:56:36;;;;;;;6.65;4.55;;;;;;;14.27;50.44;100473.31;5010321;28;20073;-77
2023/06/05 01:59:06;;;;;;;8.25;5.50;;;;;;;14.24;50.68;100473.47;5011769;28;20054;-77
2023/06/05 02:01:34;;;;;;;8.65;4.68;;;;;;;14.22;50.55;100472.72;5011653;28;20053;-76
2023/06/05 02:04:05;;;;;;;7.57;5.15;;;;;;;14.19;50.81;100464.97;5011417;28;20048;-76
2023/06/05 02:06:41;;;;;;;8.25;4.82;;;;;;;14.15;51.02;100461.66;5011756;28;20108;-76
2023/06/05 02:09:10;;;;;;;8.38;5.25;;;;;;;14.12;50.87;100464.50;5011647;28;20162;-76
2023/06/05 02:11:37;;;;;;;7.82;5.03;;;;;;;14.09;50.90;100469.97;5012127;28;20046;-76
2023/06/05 02:14:06;;;;;;;7.10;5.35;;;;;;;14.04;51.22;100467.59;5010214;28;20057;-76
2023/06/05 02:16:33;;;;;;;9.63;5.85;;;;;;;14.02;51.00;100466.00;5011584;28;20050;-76
2023/06/05 02:19:03;;;;;;;7.07;5.50;;;;;;;13.99;51.16;100472.34;5010290;28;20045;-76
2023/06/05 02:21:32;;;;;;;8.90;5.45;;;;;;;13.97;51.16;100470.72;5011482;28;20077;-77
2023/06/05 02:23:59;;;;;;;8.30;5.60;;;;;;;13.94;51.36;100464.66;5010960;28;20785;-77
2023/06/05 02:26:27;;;;;;;7.18;4.95;;;;;;;13.92;51.31;100463.06;5011286;28;20054;-77
2023/06/05 02:28:54;;;;;;;6.63;5.65;;;;;;;13.89;51.45;100466.72;5011467;28;20042;-77
2023/06/05 02:31:25;;;;;;;7.35;5.45;;;;;;;13.87;52.42;100459.84;5010188;28;20112;-77
2023/06/05 02:33:52;;;;;;;8.93;4.95;;;;;;;13.87;51.55;100460.66;5009833;28;20499;-76
2023/06/05 02:36:19;;;;;;;8.48;5.72;;;;;;;13.86;51.53;100458.13;5009943;28;20120;-76
2023/06/05 02:38:49;;;;;;;6.38;5.10;;;;;;;13.86;51.86;100458.97;5010916;28;20060;-77
2023/06/05 02:41:21;;;;;;;8.77;5.68;;;;;;;13.82;52.75;100446.88;5009977;28;20578;-77
2023/06/05 02:43:48;;;;;;;8.23;5.60;;;;;;;13.83;51.17;100453.84;5011231;28;20068;-76
2023/06/05 02:46:15;;;;;;;8.75;5.32;;;;;;;13.81;51.71;100447.81;5011574;28;20388;-77
2023/06/05 02:48:42;;;;;;;7.78;5.38;;;;;;;13.79;51.63;100453.19;5011081;28;20042;-76
2023/06/05 02:51:10;;;;;;;9.07;5.60;;;;;;;13.79;51.96;100449.69;5011107;28;20112;-77
2023/06/05 02:53:38;;;;;;;7.60;5.40;;;;;;;13.76;52.08;100447.25;5011161;28;20442;-76
2023/06/05 02:56:05;;;;;;;10.43;6.10;;;;;;;13.74;52.27;100449.09;5010968;28;20046;-76
2023/06/05 02:58:33;;;;;;;7.53;5.65;;;;;;;13.74;52.53;100449.09;5011766;28;20534;-77
2023/06/05 03:01:08;;;;;;;9.65;5.50;;;;;;;13.74;52.53;100449.09;5015019;28;20096;-77
2023/06/05 03:03:35;;;;;;;7.10;5.55;;;;;;;13.73;52.55;100442.13;5015051;28;20050;-76
2023/06/05 03:06:06;;;;;;;10.25;6.32;;;;;;;13.75;52.77;100440.25;5014939;28;20073;-76
2023/06/05 03:08:35;;;;;;;9.02;5.80;;;;;;;13.76;52.69;100436.66;5014764;28;20129;-77
2023/06/05 03:11:03;;;;;;;9.05;5.97;;;;;;;13.76;52.45;100444.59;5014936;28;20061;-76
2023/06/05 03:13:32;;;;;;;8.73;5.57;;;;;;;13.75;52.49;100435.78;5015037;28;20061;-75
2023/06/05 03:16:01;;;;;;;9.18;5.95;;;;;;;13.73;52.60;100434.19;5014464;28;20084;-76
2023/06/05 03:18:28;;;;;;;10.88;6.85;;;;;;;13.74;52.62;100433.22;5014103;28;20089;-76
2023/06/05 03:20:56;;;;;;;10.82;6.53;;;;;;;13.72;52.74;100428.03;5014694;28;20076;-76
2023/06/05 03:26:41;;;;;;;10.20;6.10;;;;;;;13.73;52.59;100434.19;5041209;22;20520;-81
2023/06/05 03:29:09;;;;;;;10.85;6.38;;;;;;;13.72;52.65;100435.97;5013050;28;20060;-81
2023/06/05 03:31:36;;;;;;;9.02;5.88;;;;;;;13.72;52.65;100432.50;5013998;28;20136;-81
2023/06/05 03:34:03;;;;;;;10.25;6.07;;;;;;;13.71;52.82;100428.16;5013538;28;20504;-81
2023/06/05 03:36:33;;;;;;;11.95;6.68;;;;;;;13.72;53.04;100424.56;5013026;28;20162;-81
2023/06/05 03:39:00;;;;;;;8.77;6.35;;;;;;;13.71;52.97;100421.03;5013297;28;20074;-81
2023/06/05 03:41:26;;;;;;;12.23;6.78;;;;;;;13.70;52.96;100431.72;5012171;28;20136;-81
2023/06/05 03:43:53;;;;;;;11.50;6.93;;;;;;;13.67;52.76;100428.31;5011944;28;20064;-81
2023/06/05 03:46:20;;;;;;;11.27;6.88;;;;;;;13.66;53.06;100423.13;5013280;28;20106;-80
2023/06/05 03:48:55;;;;;;;10.63;6.70;;;;;;;13.65;53.05;100426.72;5013021;28;20053;-80
2023/06/05 03:51:21;;;;;;;9.80;6.47;;;;;;;13.64;53.19;100422.38;5011779;28;20471;-81
2023/06/05 03:53:54;;;;;;;11.05;7.45;;;;;;;13.62;53.29;100417.16;5013244;28;20049;-81
2023/06/05 03:56:21;;;;;;;11.52;6.72;;;;;;;13.61;53.28;100428.66;5012704;28;20050;-81
2023/06/05 03:58:48;;;;;;;10.27;6.55;;;;;;;13.60;53.53;100426.97;5013261;28;20108;-81
2023/06/05 04:01:14;;;;;;;10.98;6.82;;;;;;;13.62;53.66;100437.47;5013107;28;20119;-81
2023/06/05 04:03:41;;;;;;;9.80;6.53;;;;;;;13.61;53.56;100425.19;5013032;28;20053;-81
2023/06/05 04:06:08;;;;;;;15.27;7.43;;;;;;;13.62;53.63;100426.88;5012877;28;20049;-81
2023/06/05 04:08:35;;;;;;;11.52;7.40;;;;;;;13.63;53.67;100431.22;5011720;28;20053;-81
2023/06/05 04:11:02;;;;;;;11.30;6.93;;;;;;;13.65;53.63;100426.72;5012153;28;20623;-82
2023/06/05 04:13:29;;;;;;;9.10;6.65;;;;;;;13.66;53.51;100431.06;5011340;28;20401;-81
2023/06/05 04:15:57;;;;;;;12.70;7.18;;;;;;;13.66;53.55;100426.63;5012809;28;20456;-81
2023/06/05 04:18:24;;;;;;;14.38;7.57;;;;;;;13.67;53.68;100427.47;5011183;28;20132;-81
2023/06/05 04:20:50;;;;;;;9.88;7.00;;;;;;;13.67;53.56;100424.81;5012847;28;20066;-81
2023/06/05 04:23:17;;;;;;;9.65;6.88;;;;;;;13.66;53.59;100428.41;5012442;28;20054;-81
2023/06/05 04:25:45;;;;;;;11.68;6.78;;;;;;;13.66;53.68;100425.75;5011221;28;20412;-81
2023/06/05 04:28:12;;;;;;;13.95;7.15;;;;;;;13.66;53.72;100425.75;5012195;28;20052;-81
2023/06/05 04:30:39;;;;;;;10.45;7.25;;;;;;;13.64;53.76;100423.19;5011447;28;20054;-81
2023/06/05 04:33:06;;;;;;;13.13;7.97;;;;;;;13.64;54.01;100422.38;5011102;28;20058;-81
2023/06/05 04:35:33;;;;;;;11.88;6.80;;;;;;;13.65;54.10;100416.97;5012161;28;20057;-81
2023/06/05 04:38:00;;;;;;;11.57;7.10;;;;;;;13.67;54.14;100415.09;5011876;28;20525;-80
2023/06/05 04:40:27;;;;;;;23.35;8.25;;;;;;;13.68;54.11;100424.72;5010688;28;20045;-81
2023/06/05 04:42:54;;;;;;;11.48;6.68;;;;;;;13.70;53.94;100422.00;5010745;28;20057;-81
2023/06/05 04:45:21;;;;;;;26.30;7.22;;;;;;;13.72;53.94;100424.56;5010356;28;20054;-80
2023/06/05 04:47:47;;;;;;;10.38;7.40;;;;;;;13.74;54.07;100427.94;5010895;28;20145;-81
2023/06/05 04:50:26;;;;;;;12.63;7.13;;;;;;;13.72;55.40;100427.19;5010514;28;20046;-81
2023/06/05 04:52:53;;;;;;;10.88;7.22;;;;;;;13.78;54.41;100421.53;5011926;28;20049;-81
2023/06/05 04:55:20;;;;;;;12.65;7.05;;;;;;;13.78;54.36;100422.38;5012199;28;20216;-81
2023/06/05 04:57:48;;;;;;;10.23;7.18;;;;;;;13.79;54.03;100420.56;5011997;28;20062;-81
2023/06/05 05:00:15;;;;;;;12.73;7.40;;;;;;;13.81;54.29;100429.28;5011422;28;20065;-81
2023/06/05 05:02:42;;;;;;;11.25;7.88;;;;;;;13.84;54.24;100423.81;5010201;28;20129;-81
2023/06/05 05:05:13;;;;;;;13.65;7.30;;;;;;;13.85;54.40;100425.50;5011359;28;20496;-81
2023/06/05 05:07:41;;;;;;;10.27;7.53;;;;;;;13.87;54.55;100434.19;5011758;28;20136;-81
2023/06/05 05:10:08;;;;;;;10.68;7.72;;;;;;;13.88;54.51;100429.78;5010764;28;20137;-81
2023/06/05 05:12:36;;;;;;;10.27;7.30;;;;;;;13.91;54.64;100430.44;5011913;28;20136;-81
2023/06/05 05:15:04;;;;;;;12.45;7.70;;;;;;;13.92;54.86;100429.50;5010208;28;20054;-80
2023/06/05 05:17:31;;;;;;;12.85;7.47;;;;;;;13.96;54.87;100429.28;5011632;28;20057;-81
2023/06/05 05:19:57;;;;;;;13.70;8.38;;;;;;;13.98;54.87;100432.72;5010280;28;20042;-80
2023/06/05 05:22:26;;;;;;;10.50;7.45;;;;;;;14.02;54.83;100428.94;5010505;28;20129;-81
2023/06/05 05:24:53;;;;;;;9.93;7.32;;;;;;;14.05;54.81;100432.25;5011705;28;20128;-81
2023/06/05 05:27:20;;;;;;;9.85;7.63;;;;;;;14.10;54.85;100429.34;5011412;28;20463;-81
2023/06/05 05:29:46;;;;;;;13.35;7.82;;;;;;;14.15;54.93;100437.84;5011473;28;20104;-84
2023/06/05 05:32:13;;;;;;;17.52;7.70;;;;;;;14.19;54.89;100438.50;5011262;28;20144;-83
2023/06/05 05:34:40;;;;;;;11.35;7.18;;;;;;;14.23;54.85;100439.16;5011675;28;20089;-82
2023/06/05 05:37:07;;;;;;;14.00;7.72;;;;;;;14.28;55.03;100439.75;5011122;28;20046;-83
2023/06/05 05:39:36;;;;;;;10.43;7.22;;;;;;;14.33;55.15;100435.00;5010751;28;20799;-83
2023/06/05 05:42:02;;;;;;;10.38;7.45;;;;;;;14.39;55.08;100433.78;5011752;28;20050;-83
2023/06/05 05:44:29;;;;;;;12.32;8.25;;;;;;;14.44;55.18;100440.47;5011410;28;20433;-83
2023/06/05 05:46:56;;;;;;;11.65;7.47;;;;;;;14.50;55.08;100439.22;5011591;28;20058;-83
2023/06/05 05:49:22;;;;;;;13.45;7.57;;;;;;;14.58;55.27;100444.06;5010642;28;20049;-83
2023/06/05 05:51:50;;;;;;;14.88;7.88;;;;;;;14.63;55.27;100441.97;5010671;28;20049;-83
2023/06/05 05:54:17;;;;;;;10.65;7.82;;;;;;;14.70;55.15;100442.44;5010332;28;20100;-83
2023/06/05 05:56:43;;;;;;;12.25;7.63;;;;;;;14.77;55.18;100442.94;5010059;28;20050;-83
2023/06/05 05:59:10;;;;;;;13.88;8.35;;;;;;;14.83;54.94;100443.38;5010294;28;20236;-83
2023/06/05 06:01:37;;;;;;;13.15;8.32;;;;;;;14.89;55.03;100441.28;5010283;28;20100;-83
2023/06/05 06:04:04;;;;;;;12.20;7.40;;;;;;;14.93;55.10;100437.50;5010468;28;20490;-83
2023/06/05 06:06:33;;;;;;;12.50;8.05;;;;;;;14.98;55.16;100446.84;5010968;28;20088;-83
2023/06/05 06:09:01;;;;;;;10.57;7.80;;;;;;;15.03;54.93;100446.53;5011287;28;20124;-83
2023/06/05 06:11:28;;;;;;;15.40;7.75;;;;;;;15.06;55.05;100451.66;5010192;28;20141;-82
2023/06/05 06:13:55;;;;;;;9.52;7.25;;;;;;;15.10;54.88;100450.50;5010020;28;20046;-83
2023/06/05 06:16:21;;;;;;;11.52;7.82;;;;;;;15.14;55.07;100447.66;5009532;28;20172;-83
2023/06/05 06:18:48;;;;;;;14.35;8.25;;;;;;;15.20;55.14;100452.53;5010284;28;20129;-83
2023/06/05 06:21:15;;;;;;;11.40;7.55;;;;;;;15.25;55.09;100455.75;5011241;28;20056;-83
2023/06/05 06:23:44;;;;;;;10.57;7.70;;;;;;;15.29;54.99;100453.75;5009668;28;20487;-82
2023/06/05 06:26:15;;;;;;;10.45;6.93;;;;;;;15.33;55.13;100464.06;5009210;28;20060;-83
2023/06/05 06:28:41;;;;;;;11.02;7.53;;;;;;;15.39;55.15;100465.44;5009670;28;20119;-83
2023/06/05 06:31:08;;;;;;;13.50;8.25;;;;;;;15.45;55.20;100453.59;5009669;28;20084;-83
2023/06/05 06:33:37;;;;;;;12.65;7.15;;;;;;;15.50;55.33;100451.47;5009636;28;20133;-83
2023/06/05 06:36:04;;;;;;;13.23;7.68;;;;;;;15.56;55.36;100459.03;5009535;28;20060;-83
2023/06/05 06:38:33;;;;;;;10.85;7.43;;;;;;;15.63;55.28;100470.09;5009754;28;20057;-83
2023/06/05 06:41:00;;;;;;;8.35;7.15;;;;;;;15.68;55.14;100462.66;5010892;28;20428;-83
2023/06/05 06:43:26;;;;;;;15.20;7.82;;;;;;;15.75;55.21;100471.06;5010611;28;20061;-83
2023/06/05 06:45:53;;;;;;;10.32;7.47;;;;;;;15.84;55.32;100469.56;5010908;28;20061;-83
2023/06/05 06:48:20;;;;;;;12.85;7.95;;;;;;;15.90;55.03;100463.88;5008856;28;20524;-83
2023/06/05 06:50:47;;;;;;;10.73;7.88;;;;;;;15.97;55.00;100461.66;5010770;28;20046;-83
2023/06/05 06:53:13;;;;;;;15.45;8.07;;;;;;;16.03;54.97;100471.84;5009596;28;20054;-83
2023/06/05 06:55:40;;;;;;;13.52;7.55;;;;;;;16.09;55.15;100471.47;5010656;28;20057;-83
2023/06/05 06:58:07;;;;;;;10.70;7.20;;;;;;;16.19;54.80;100473.47;5009409;28;20108;-83
2023/06/05 07:00:33;;;;;;;13.02;7.70;;;;;;;16.23;54.81;100467.81;5010608;28;20050;-83
2023/06/05 07:03:00;;;;;;;10.98;6.95;;;;;;;16.31;54.74;100472.63;5009526;28;20058;-83
2023/06/05 07:05:27;;;;;;;8.27;7.10;;;;;;;16.37;54.80;100476.66;5010906;28;20049;-82
2023/06/05 07:07:53;;;;;;;9.82;7.35;;;;;;;16.46;54.57;100478.66;5009459;28;20054;-83
2023/06/05 07:10:20;;;;;;;12.23;7.78;;;;;;;16.51;54.78;100473.88;5010377;28;20526;-82
2023/06/05 07:12:46;;;;;;;12.52;7.93;;;;;;;16.58;54.71;100473.44;5009604;28;20058;-83
2023/06/05 07:15:13;;;;;;;16.65;7.70;;;;;;;16.65;54.70;100478.22;5010358;28;20049;-82
2023/06/05 07:17:40;;;;;;;9.15;6.72;;;;;;;16.70;54.50;100480.53;5009256;28;20420;-83
2023/06/05 07:20:08;;;;;;;11.23;8.05;;;;;;;16.77;54.34;100484.47;5010623;28;20057;-83
2023/06/05 07:22:34;;;;;;;9.48;7.18;;;;;;;16.84;54.71;100479.53;5009331;28;20089;-83
2023/06/05 07:25:01;;;;;;;13.50;7.82;;;;;;;16.91;54.47;100482.63;5009074;28;20057;-83
2023/06/05 07:27:28;;;;;;;8.68;6.60;;;;;;;16.97;54.52;100465.38;5008724;28;20062;-83
2023/06/05 07:29:55;;;;;;;11.23;7.22;;;;;;;17.04;54.38;100480.78;5008529;28;20049;-83
2023/06/05 07:32:22;;;;;;;11.75;7.60;;;;;;;17.15;54.59;100473.81;5008635;28;20081;-83
2023/06/05 07:34:49;;;;;;;12.85;7.95;;;;;;;17.22;54.39;100472.41;5008401;28;20085;-82
2023/06/05 07:37:15;;;;;;;12.30;7.78;;;;;;;17.30;54.48;100470.03;5008763;28;20463;-83
2023/06/05 07:39:42;;;;;;;13.02;7.53;;;;;;;17.38;54.55;100458.81;5010783;28;20249;-83
2023/06/05 07:42:08;;;;;;;10.70;7.32;;;;;;;17.50;54.44;100474.84;5010413;28;20050;-83
2023/06/05 07:44:35;;;;;;;10.40;7.13;;;;;;;17.60;54.53;100469.69;5010309;28;20061;-83
2023/06/05 07:47:02;;;;;;;11.35;7.60;;;;;;;17.68;54.23;100472.63;5013074;28;20082;-83
2023/06/05 07:49:32;;;;;;;9.85;7.38;;;;;;;17.78;54.59;100476.28;5012560;28;20045;-83
2023/06/05 07:51:58;;;;;;;9.25;6.60;;;;;;;17.89;53.88;100477.25;5013589;28;20467;-83
2023/06/05 07:54:25;;;;;;;8.25;6.93;;;;;;;17.97;53.78;100473.06;5013356;28;20504;-82
2023/06/05 07:56:52;;;;;;;12.73;6.85;;;;;;;18.06;53.81;100470.63;5012341;28;20270;-83
2023/06/05 07:59:24;;;;;;;13.48;7.53;;;;;;;18.17;54.26;100477.84;5013765;28;20061;-82
2023/06/05 08:01:51;;;;;;;10.00;8.17;;;;;;;18.26;53.80;100476.25;5012632;28;20060;-82
2023/06/05 08:04:19;;;;;;;13.00;7.25;;;;;;;18.36;53.63;100479.91;5011888;28;20049;-82
2023/06/05 08:06:46;;;;;;;12.35;8.00;;;;;;;18.48;53.35;100480.75;5012206;28;20061;-82
2023/06/05 08:09:13;;;;;;;12.85;7.93;;;;;;;18.56;53.43;100475.66;5013569;28;20054;-82
2023/06/05 08:11:41;;;;;;;11.70;7.55;;;;;;;18.65;53.31;100481.25;5013527;28;20065;-82
2023/06/05 08:14:09;;;;;;;12.27;7.72;;;;;;;18.74;53.52;100480.50;5011965;28;20053;-82
2023/06/05 08:16:36;;;;;;;9.90;7.07;;;;;;;18.85;52.97;100485.81;5012280;28;20092;-83
2023/06/05 08:19:03;;;;;;;13.40;7.00;;;;;;;18.95;52.94;100482.41;5013340;28;20074;-82
2023/06/05 08:21:30;;;;;;;10.35;7.38;;;;;;;19.04;52.91;100471.00;5012198;28;20046;-82
2023/06/05 08:23:56;;;;;;;10.68;7.75;;;;;;;19.16;52.88;100476.31;5012853;28;20141;-83
2023/06/05 08:26:23;;;;;;;10.95;7.20;;;;;;;19.25;52.60;100464.91;5012639;28;20054;-83
2023/06/05 08:28:50;;;;;;;11.38;7.88;;;;;;;19.34;52.96;100458.78;5013151;28;20062;-83
2023/06/05 08:31:17;;;;;;;15.63;7.55;;;;;;;19.44;53.04;100463.34;5011781;28;20054;-83
2023/06/05 08:33:43;;;;;;;13.07;7.25;;;;;;;19.53;52.73;100458.09;5012500;28;20050;-83
2023/06/05 08:36:10;;;;;;;9.20;6.88;;;;;;;19.65;52.88;100453.53;5012766;28;20050;-83
2023/06/05 08:38:36;;;;;;;14.60;7.47;;;;;;;19.77;52.49;100466.81;5013010;28;20466;-83
2023/06/05 08:41:10;;;;;;;9.90;7.55;;;;;;;19.89;52.18;100452.41;5012920;28;20121;-83
2023/06/05 08:43:41;;;;;;;9.57;6.60;;;;;;;19.99;52.21;100455.19;5011313;28;20108;-82
2023/06/05 08:46:09;;;;;;;11.25;7.35;;;;;;;20.11;51.75;100458.63;5011174;28;20049;-83
2023/06/05 08:48:41;;;;;;;11.43;7.07;;;;;;;20.21;51.52;100452.47;5012794;28;20066;-83
2023/06/05 08:51:14;;;;;;;11.65;7.05;;;;;;;20.31;51.47;100464.06;5012827;28;20053;-82
2023/06/05 08:53:51;;;;;;;11.77;7.70;;;;;;;20.42;50.83;100463.13;5012415;28;20058;-83
2023/06/05 08:56:18;;;;;;;11.23;7.55;;;;;;;20.55;51.34;100460.22;5011997;28;20046;-83
2023/06/05 08:58:46;;;;;;;8.82;6.72;;;;;;;20.64;51.20;100459.41;5012075;28;20137;-83
2023/06/05 09:01:13;;;;;;;9.82;6.80;;;;;;;20.73;51.20;100454.22;5011485;28;20105;-83
2023/06/05 09:03:39;;;;;;;10.23;7.18;;;;;;;20.85;51.14;100453.13;5011066;28;20112;-83
2023/06/05 09:06:06;;;;;;;11.75;7.05;;;;;;;20.95;51.05;100454.03;5011310;28;20423;-83
2023/06/05 09:08:33;;;;;;;10.23;7.40;;;;;;;21.06;51.14;100445.03;5010985;28;20065;-83
2023/06/05 09:11:19;;;;;;;11.48;7.43;;;;;;;21.14;50.79;100444.31;5012231;28;20049;-83
2023/06/05 09:13:47;;;;;;;12.85;6.82;;;;;;;21.29;50.55;100452.78;5010848;28;20061;-83
2023/06/05 09:16:13;;;;;;;9.05;7.28;;;;;;;21.38;50.69;100451.06;5010845;28;20120;-81
2023/06/05 09:19:00;;;;;;;10.60;6.82;;;;;;;21.45;50.41;100446.84;5011976;28;20046;-83
2023/06/05 09:21:31;;;;;;;10.80;6.50;;;;;;;21.62;50.43;100444.44;5012120;28;20574;-83
2023/06/05 09:24:07;;;;;;;11.70;7.03;;;;;;;21.71;49.76;100448.09;5010572;28;20061;-83
2023/06/05 09:26:47;;;;;;;11.00;6.70;;;;;;;21.82;50.05;100447.09;5031096;22;20049;-79
2023/06/05 09:29:28;;;;;;;9.75;6.88;;;;;;;21.94;49.94;100440.59;5013511;28;20067;-77
2023/06/05 09:31:58;;;;;;;12.45;7.20;;;;;;;22.06;49.62;100438.63;5012557;28;20046;-79
2023/06/05 09:34:31;;;;;;;9.05;6.97;;;;;;;22.17;49.59;100439.41;5013587;28;20531;-77
2023/06/05 09:37:01;;;;;;;11.20;6.43;;;;;;;22.28;49.58;100447.28;5013577;28;20057;-77
2023/06/05 09:39:30;;;;;;;10.90;6.70;;;;;;;22.36;49.04;100444.69;5012280;28;20477;-77
2023/06/05 09:42:01;;;;;;;8.35;6.28;;;;;;;22.46;49.00;100443.81;5012412;28;20050;-77
2023/06/05 09:44:29;;;;;;;9.52;6.10;;;;;;;22.57;48.54;100445.47;5011903;28;20065;-77
2023/06/05 09:47:05;;;;;;;9.77;6.35;;;;;;;22.63;48.76;100445.72;5012836;28;20049;-77
2023/06/05 09:49:47;;;;;;;9.77;6.28;;;;;;;22.71;47.95;100444.13;5012985;28;20064;-77
2023/06/05 09:52:14;;;;;;;11.27;6.90;;;;;;;22.85;48.43;100440.06;5011651;28;20062;-77
2023/06/05 09:54:46;;;;;;;9.02;6.30;;;;;;;22.93;48.54;100432.13;5011238;28;20056;-76
2023/06/05 09:57:14;;;;;;;8.10;5.97;;;;;;;23.01;48.16;100428.66;5011377;28;20049;-76
2023/06/05 09:59:51;;;;;;;9.27;6.00;;;;;;;23.13;47.96;100440.00;5013018;28;20487;-77
2023/06/05 10:02:20;;;;;;;7.13;5.45;;;;;;;23.25;48.57;100438.78;5011896;28;20058;-77
2023/06/05 10:04:54;;;;;;;17.02;5.90;;;;;;;23.35;47.99;100432.50;5011187;28;20065;-77
2023/06/05 10:07:22;;;;;;;7.30;4.88;;;;;;;23.49;48.00;100423.06;5011576;28;20062;-77
2023/06/05 10:09:52;;;;;;;7.93;5.88;;;;;;;23.61;47.45;100426.34;5011085;28;20053;-77
2023/06/05 10:12:20;;;;;;;7.97;5.20;;;;;;;23.73;47.90;100418.88;5011923;28;20058;-76
2023/06/05 10:14:48;;;;;;;8.98;4.90;;;;;;;23.85;47.43;100424.84;5011646;28;20066;-76
2023/06/05 10:17:16;;;;;;;8.05;5.65;;;;;;;23.97;47.12;100431.63;5010652;28;20085;-76
2023/06/05 10:19:44;;;;;;;8.82;5.78;;;;;;;24.08;47.72;100425.13;5011541;28;20087;-77
2023/06/05 10:22:13;;;;;;;9.90;6.20;;;;;;;24.19;47.37;100415.97;5011268;28;20050;-76
2023/06/05 10:24:47;;;;;;;9.55;5.50;;;;;;;24.27;46.92;100421.41;5011580;28;20447;-77
2023/06/05 10:27:36;;;;;;;8.20;5.40;;;;;;;24.38;46.58;100414.88;5011566;28;20045;-77
2023/06/05 10:30:53;;;;;;;8.73;5.35;;;;;;;24.51;46.26;100416.28;5012329;28;20065;-77
2023/06/05 10:33:32;;;;;;;8.32;5.22;;;;;;;24.69;46.07;100419.69;5011079;28;20128;-76
2023/06/05 10:36:10;;;;;;;11.48;5.22;;;;;;;24.87;46.32;100412.50;5010896;28;20500;-77
2023/06/05 10:38:39;;;;;;;6.90;4.80;;;;;;;25.02;46.08;100407.31;5011441;28;20057;-77
2023/06/05 10:41:07;;;;;;;6.22;4.72;;;;;;;25.21;46.08;100398.91;5011639;28;20073;-77
2023/06/05 10:43:47;;;;;;;7.88;5.32;;;;;;;25.41;45.57;100400.44;5011541;28;20050;-77
2023/06/05 10:46:27;;;;;;;6.13;4.72;;;;;;;25.73;44.79;100393.31;5011750;28;20077;-77
2023/06/05 10:49:08;;;;;;;7.97;4.75;;;;;;;26.15;44.36;100402.97;5011904;28;20112;-77
2023/06/05 10:51:40;;;;;;;6.05;4.68;;;;;;;26.65;44.17;100408.16;5013077;28;20053;-77
2023/06/05 10:54:10;;;;;;;6.03;3.77;;;;;;;27.16;44.97;100404.13;5012270;28;20046;-77
2023/06/05 10:57:01;;;;;;;6.53;4.35;;;;;;;27.74;44.16;100404.66;5012854;28;20052;-77
2023/06/05 10:59:34;;;;;;;5.53;3.58;;;;;;;28.33;43.08;100394.88;5012112;28;20539;-76
2023/06/05 11:02:16;;;;;;;7.50;4.22;;;;;;;28.89;41.81;100396.06;5012230;28;20164;-77
2023/06/05 11:04:47;;;;;;;4.53;3.60;;;;;;;29.45;41.16;100380.94;5011986;28;20129;-77
2023/06/05 11:07:30;;;;;;;5.50;3.25;;;;;;;29.97;39.64;100383.38;5012357;28;20077;-77
2023/06/05 11:10:15;;;;;;;4.93;3.70;;;;;;;30.46;39.39;100383.38;5012344;28;20073;-78
2023/06/05 11:12:42;;;;;;;5.40;3.88;;;;;;;30.91;38.74;100385.59;5011985;28;20054;-77
2023/06/05 11:15:11;;;;;;;4.63;3.33;;;;;;;31.24;38.00;100375.78;5011434;28;20532;-77
2023/06/05 11:17:47;;;;;;;5.75;3.13;;;;;;;31.54;36.90;100383.53;5012520;28;20054;-77
2023/06/05 11:20:23;;;;;;;5.90;3.28;;;;;;;31.84;36.18;100374.03;5013643;28;20076;-77
2023/06/05 11:23:11;;;;;;;7.97;3.50;;;;;;;32.09;36.17;100376.06;5018764;28;20045;-78
2023/06/05 11:25:38;;;;;;;3.97;3.33;;;;;;;32.38;35.20;100371.13;5013848;28;20109;-77
2023/06/05 11:28:10;;;;;;;7.47;3.05;;;;;;;32.57;34.85;100369.38;5016757;28;20133;-77
2023/06/05 11:30:46;;;;;;;6.40;3.33;;;;;;;32.74;34.69;100363.41;5015088;28;20096;-77
2023/06/05 11:33:20;;;;;;;5.15;3.17;;;;;;;32.97;33.66;100373.69;5014780;28;20077;-77